Time,TemperatureF,DewpointF,PressureIn,WindDirection,WindDirectionDegrees,WindSpeedMPH,WindSpeedGustMPH,Humidity,HourlyPrecipIn,Conditions,Clouds,dailyrainin,SolarRadiationWatts/m^2,SoftwareType,DateUTC
2013-02-21 00:01:00,20.0,13.0,-100.00,NW,318,2.0,11.0,73,0.00,,,0.00,0.000000,,2013-02-21 08:01:00,
2013-02-21 00:11:00,20.0,13.0,-100.00,NW,318,2.0,11.0,73,0.00,,,0.00,0.000000,,2013-02-21 08:11:00,
2013-02-21 00:21:00,20.0,13.0,-100.00,NW,318,2.0,11.0,73,0.00,,,0.00,0.000000,,2013-02-21 08:21:00,
2013-02-21 00:52:00,18.0,11.0,-100.00,West,274,5.0,10.0,75,0.00,,,0.00,0.000000,,2013-02-21 08:52:00,
2013-02-21 01:01:00,18.0,11.0,-100.00,West,274,5.0,10.0,75,0.00,,,0.00,0.000000,,2013-02-21 09:01:00,
2013-02-21 01:11:00,18.0,11.0,-100.00,West,274,5.0,10.0,75,0.00,,,0.00,0.000000,,2013-02-21 09:11:00,
2013-02-21 01:22:00,18.0,11.0,-100.00,West,274,5.0,10.0,75,0.00,,,0.00,0.000000,,2013-02-21 09:22:00,
2013-02-21 01:52:00,16.0,10.0,-100.00,South,189,2.0,8.0,76,0.00,,,0.00,0.000000,,2013-02-21 09:52:00,
2013-02-21 02:01:00,16.0,10.0,-100.00,South,189,2.0,8.0,76,0.00,,,0.00,0.000000,,2013-02-21 10:01:00,
2013-02-21 02:11:00,16.0,10.0,-100.00,South,189,2.0,8.0,76,0.00,,,0.00,0.000000,,2013-02-21 10:11:00,
2013-02-21 02:21:00,16.0,10.0,-100.00,South,189,2.0,8.0,76,0.00,,,0.00,0.000000,,2013-02-21 10:21:00,
2013-02-21 02:51:00,17.0,11.0,-100.00,West,270,7.0,8.0,78,0.00,,,0.00,0.000000,,2013-02-21 10:51:00,
2013-02-21 03:01:00,17.0,11.0,-100.00,West,270,7.0,8.0,78,0.00,,,0.00,0.000000,,2013-02-21 11:01:00,
2013-02-21 03:11:00,17.0,11.0,-100.00,West,270,7.0,8.0,78,0.00,,,0.00,0.000000,,2013-02-21 11:11:00,
2013-02-21 03:21:00,17.0,11.0,-100.00,West,270,7.0,8.0,78,0.00,,,0.00,0.000000,,2013-02-21 11:21:00,
2013-02-21 03:52:00,16.0,11.0,-100.00,NNW,341,3.0,10.0,79,0.00,,,0.00,0.000000,,2013-02-21 11:52:00,
2013-02-21 04:01:00,16.0,11.0,-100.00,NNW,341,3.0,10.0,79,0.00,,,0.00,0.000000,,2013-02-21 12:01:00,
2013-02-21 04:11:00,16.0,11.0,-100.00,NNW,341,3.0,10.0,79,0.00,,,0.00,0.000000,,2013-02-21 12:11:00,
2013-02-21 04:21:00,16.0,11.0,-100.00,NNW,341,3.0,10.0,79,0.00,,,0.00,0.000000,,2013-02-21 12:21:00,
2013-02-21 04:52:00,14.0,12.0,-100.00,WNW,294,5.0,11.0,90,0.00,,,0.00,0.000000,,2013-02-21 12:52:00,
2013-02-21 05:01:00,14.0,12.0,-100.00,WNW,294,5.0,11.0,90,0.00,,,0.00,0.000000,,2013-02-21 13:01:00,
2013-02-21 05:12:00,14.0,12.0,-100.00,WNW,294,5.0,11.0,90,0.00,,,0.00,0.000000,,2013-02-21 13:12:00,
2013-02-21 05:22:00,14.0,12.0,-100.00,WNW,294,5.0,11.0,90,0.00,,,0.00,0.000000,,2013-02-21 13:22:00,
2013-02-21 05:52:00,14.0,11.0,-100.00,North,356,3.0,9.0,87,0.00,,,-99.99,0.000000,,2013-02-21 13:52:00,
2013-02-21 06:02:00,14.0,11.0,-100.00,North,356,3.0,9.0,87,0.00,,,-99.99,0.000000,,2013-02-21 14:02:00,
2013-02-21 06:11:00,14.0,11.0,-100.00,North,356,3.0,9.0,87,0.00,,,-99.99,0.000000,,2013-02-21 14:11:00,
2013-02-21 06:21:00,14.0,11.0,-100.00,North,356,3.0,9.0,87,0.00,,,-99.99,0.000000,,2013-02-21 14:21:00,
2013-02-21 06:52:00,12.0,9.0,-100.00,NW,310,6.0,9.0,86,0.00,,,0.00,0.000000,,2013-02-21 14:52:00,
2013-02-21 07:01:00,12.0,9.0,-100.00,NW,310,6.0,9.0,86,0.00,,,0.00,0.000000,,2013-02-21 15:01:00,
2013-02-21 07:12:00,12.0,9.0,-100.00,NW,310,6.0,9.0,86,0.00,,,0.00,0.000000,,2013-02-21 15:12:00,
2013-02-21 07:21:00,12.0,9.0,-100.00,NW,310,6.0,9.0,86,0.00,,,0.00,0.000000,,2013-02-21 15:21:00,
2013-02-21 07:52:00,10.0,4.0,-100.00,WNW,296,5.0,7.0,77,0.00,,,0.00,0.000000,,2013-02-21 15:52:00,
2013-02-21 08:01:00,10.0,4.0,-100.00,WNW,296,5.0,7.0,77,0.00,,,0.00,0.000000,,2013-02-21 16:01:00,
2013-02-21 08:12:00,10.0,4.0,-100.00,WNW,296,5.0,7.0,77,0.00,,,0.00,0.000000,,2013-02-21 16:12:00,
2013-02-21 08:21:00,10.0,4.0,-100.00,WNW,296,5.0,7.0,77,0.00,,,0.00,0.000000,,2013-02-21 16:21:00,
2013-02-21 08:52:00,16.0,2.0,-100.00,NNW,332,2.0,7.0,52,0.00,,,0.00,5.000000,,2013-02-21 16:52:00,
2013-02-21 09:01:00,16.0,2.0,-100.00,NNW,332,2.0,7.0,52,0.00,,,0.00,5.000000,,2013-02-21 17:01:00,
2013-02-21 09:52:00,26.0,11.0,-100.00,NNE,15,10.0,10.0,53,0.00,,,0.00,167.000000,,2013-02-21 17:52:00,
2013-02-21 10:01:00,26.0,11.0,-100.00,NNE,15,10.0,10.0,53,0.00,,,0.00,167.000000,,2013-02-21 18:01:00,
2013-02-21 10:11:00,26.0,11.0,-100.00,NNE,15,10.0,10.0,53,0.00,,,0.00,167.000000,,2013-02-21 18:11:00,
2013-02-21 10:22:00,26.0,11.0,-100.00,NNE,15,10.0,10.0,53,0.00,,,0.00,167.000000,,2013-02-21 18:22:00,
2013-02-21 10:52:00,27.0,10.0,-100.00,North,7,11.0,14.0,48,0.00,,,0.00,430.000000,,2013-02-21 18:52:00,
2013-02-21 11:01:00,27.0,10.0,-100.00,North,7,11.0,14.0,48,0.00,,,0.00,430.000000,,2013-02-21 19:01:00,
2013-02-21 11:11:00,27.0,10.0,-100.00,North,7,11.0,14.0,48,0.00,,,0.00,430.000000,,2013-02-21 19:11:00,
2013-02-21 11:21:00,27.0,10.0,-100.00,North,7,11.0,14.0,48,0.00,,,0.00,430.000000,,2013-02-21 19:21:00,
2013-02-21 11:52:00,29.0,10.0,-100.00,NNE,18,11.0,17.0,45,0.00,,,0.00,647.000000,,2013-02-21 19:52:00,
2013-02-21 12:01:00,29.0,10.0,-100.00,NNE,18,11.0,17.0,45,0.00,,,0.00,647.000000,,2013-02-21 20:01:00,
2013-02-21 12:11:00,29.0,10.0,-100.00,NNE,18,11.0,17.0,45,0.00,,,0.00,647.000000,,2013-02-21 20:11:00,
2013-02-21 12:21:00,29.0,10.0,-100.00,NNE,18,11.0,17.0,45,0.00,,,0.00,647.000000,,2013-02-21 20:21:00,
2013-02-21 12:53:00,31.0,1.0,-100.00,North,350,14.0,21.0,27,0.00,,,0.00,802.000000,,2013-02-21 20:53:00,
2013-02-21 13:02:00,31.0,1.0,-100.00,North,350,14.0,21.0,27,0.00,,,0.00,802.000000,,2013-02-21 21:02:00,
2013-02-21 13:11:00,31.0,1.0,-100.00,North,350,14.0,21.0,27,0.00,,,0.00,802.000000,,2013-02-21 21:11:00,
2013-02-21 13:21:00,31.0,1.0,-100.00,North,350,14.0,21.0,27,0.00,,,0.00,802.000000,,2013-02-21 21:21:00,
2013-02-21 13:52:00,31.0,4.0,-100.00,NNW,340,11.0,20.0,31,0.00,,,0.00,892.000000,,2013-02-21 21:52:00,
2013-02-21 14:01:00,31.0,4.0,-100.00,NNW,340,11.0,20.0,31,0.00,,,0.00,892.000000,,2013-02-21 22:01:00,
2013-02-21 14:11:00,31.0,4.0,-100.00,NNW,340,11.0,20.0,31,0.00,,,0.00,892.000000,,2013-02-21 22:11:00,
2013-02-21 14:21:00,31.0,4.0,-100.00,NNW,340,11.0,20.0,31,0.00,,,0.00,892.000000,,2013-02-21 22:21:00,
2013-02-21 14:52:00,33.0,4.0,-100.00,North,5,13.0,18.0,29,0.00,,,0.00,919.000000,,2013-02-21 22:52:00,
2013-02-21 15:01:00,33.0,4.0,-100.00,North,5,13.0,18.0,29,0.00,,,0.00,919.000000,,2013-02-21 23:01:00,
2013-02-21 15:11:00,33.0,4.0,-100.00,North,5,13.0,18.0,29,0.00,,,0.00,919.000000,,2013-02-21 23:11:00,
2013-02-21 15:21:00,33.0,4.0,-100.00,North,5,13.0,18.0,29,0.00,,,0.00,919.000000,,2013-02-21 23:21:00,
2013-02-21 15:52:00,32.0,6.0,-100.00,NNE,14,9.0,20.0,33,0.00,,,0.00,855.000000,,2013-02-21 23:52:00,
2013-02-21 16:01:00,32.0,6.0,-100.00,NNE,14,9.0,20.0,33,0.00,,,0.00,855.000000,,2013-02-22 00:01:00,
2013-02-21 16:11:00,32.0,6.0,-100.00,NNE,14,9.0,20.0,33,0.00,,,0.00,855.000000,,2013-02-22 00:11:00,
2013-02-21 16:21:00,32.0,6.0,-100.00,NNE,14,9.0,20.0,33,0.00,,,0.00,855.000000,,2013-02-22 00:21:00,
2013-02-21 16:52:00,33.0,8.0,-100.00,NNE,25,7.0,16.0,35,0.00,,,0.00,710.000000,,2013-02-22 00:52:00,
2013-02-21 17:01:00,33.0,8.0,-100.00,NNE,25,7.0,16.0,35,0.00,,,0.00,710.000000,,2013-02-22 01:01:00,
2013-02-21 17:11:00,33.0,8.0,-100.00,NNE,25,7.0,16.0,35,0.00,,,0.00,710.000000,,2013-02-22 01:11:00,
2013-02-21 17:21:00,33.0,8.0,-100.00,NNE,25,7.0,16.0,35,0.00,,,0.00,710.000000,,2013-02-22 01:21:00,
2013-02-21 17:52:00,30.0,15.0,-100.00,NNW,344,4.0,13.0,52,0.00,,,0.00,504.000000,,2013-02-22 01:52:00,
2013-02-21 18:02:00,30.0,15.0,-100.00,NNW,344,4.0,13.0,52,0.00,,,0.00,504.000000,,2013-02-22 02:02:00,
2013-02-21 18:11:00,30.0,15.0,-100.00,NNW,344,4.0,13.0,52,0.00,,,0.00,504.000000,,2013-02-22 02:11:00,
2013-02-21 18:21:00,30.0,15.0,-100.00,NNW,344,4.0,13.0,52,0.00,,,0.00,504.000000,,2013-02-22 02:21:00,
2013-02-21 18:52:00,25.0,15.0,-100.00,WNW,297,8.0,10.0,65,0.00,,,0.00,242.000000,,2013-02-22 02:52:00,
2013-02-21 19:01:00,25.0,15.0,-100.00,WNW,297,8.0,10.0,65,0.00,,,0.00,242.000000,,2013-02-22 03:01:00,
2013-02-21 19:11:00,25.0,15.0,-100.00,WNW,297,8.0,10.0,65,0.00,,,0.00,242.000000,,2013-02-22 03:11:00,
2013-02-21 19:21:00,25.0,15.0,-100.00,WNW,297,8.0,10.0,65,0.00,,,0.00,242.000000,,2013-02-22 03:21:00,
2013-02-21 19:52:00,23.0,11.0,-100.00,NNE,23,3.0,12.0,59,0.00,,,0.00,34.000000,,2013-02-22 03:52:00,
2013-02-21 20:01:00,23.0,11.0,-100.00,NNE,23,3.0,12.0,59,0.00,,,0.00,34.000000,,2013-02-22 04:01:00,
2013-02-21 20:11:00,23.0,11.0,-100.00,NNE,23,3.0,12.0,59,0.00,,,0.00,34.000000,,2013-02-22 04:11:00,
2013-02-21 20:21:00,23.0,11.0,-100.00,NNE,23,3.0,12.0,59,0.00,,,0.00,34.000000,,2013-02-22 04:21:00,
2013-02-21 20:52:00,24.0,13.0,-100.00,North,358,4.0,16.0,63,0.00,,,0.00,0.000000,,2013-02-22 04:52:00,
2013-02-21 21:01:00,24.0,13.0,-100.00,North,358,4.0,16.0,63,0.00,,,0.00,0.000000,,2013-02-22 05:01:00,
2013-02-21 21:11:00,24.0,13.0,-100.00,North,358,4.0,16.0,63,0.00,,,0.00,0.000000,,2013-02-22 05:11:00,
2013-02-21 21:22:00,24.0,13.0,-100.00,North,358,4.0,16.0,63,0.00,,,0.00,0.000000,,2013-02-22 05:22:00,
2013-02-21 21:52:00,23.0,17.0,-100.00,West,265,6.0,8.0,78,0.00,,,0.00,0.000000,,2013-02-22 05:52:00,
2013-02-21 22:01:00,23.0,17.0,-100.00,West,265,6.0,8.0,78,0.00,,,0.00,0.000000,,2013-02-22 06:01:00,
2013-02-21 22:11:00,23.0,17.0,-100.00,West,265,6.0,8.0,78,0.00,,,0.00,0.000000,,2013-02-22 06:11:00,
2013-02-21 22:21:00,23.0,17.0,-100.00,West,265,6.0,8.0,78,0.00,,,0.00,0.000000,,2013-02-22 06:21:00,
2013-02-21 22:52:00,17.0,11.0,-100.00,South,174,1.0,9.0,76,0.00,,,0.00,0.000000,,2013-02-22 06:52:00,
2013-02-21 23:01:00,17.0,11.0,-100.00,South,174,1.0,9.0,76,0.00,,,0.00,0.000000,,2013-02-22 07:01:00,
2013-02-21 23:11:00,17.0,11.0,-100.00,South,174,1.0,9.0,76,0.00,,,0.00,0.000000,,2013-02-22 07:11:00,
2013-02-21 23:21:00,17.0,11.0,-100.00,South,174,1.0,9.0,76,0.00,,,0.00,0.000000,,2013-02-22 07:21:00,
2013-02-21 23:52:00,18.0,15.0,-100.00,SSW,208,0.0,7.0,86,0.00,,,0.00,0.000000,,2013-02-22 07:52:00,